Time;durP1;ratioP1;P1;durP2;ratioP2;P2;SDS_P1;SDS_P2;PMS_P1;PMS_P2;Temp;Humidity;BMP_temperature;BMP_pressure;BME280_temperature;BME280_humidity;BME280_pressure;Samples;Min_cycle;Max_cycle;Signal;HPM_P1;HPM_P2
2023/12/26 00:00:43;;;;;;;11.65;9.18;;;;;;;;;;5094151;27;20042;-76
2023/12/26 00:03:09;;;;;;;11.77;8.32;;;;;;;;;;5128904;27;20114;-76
2023/12/26 00:05:35;;;;;;;8.70;7.57;;;;;;;;;;5128994;27;20046;-77
2023/12/26 00:08:03;;;;;;;12.10;8.85;;;;;;;;;;5110636;27;20023;-76
2023/12/26 00:10:29;;;;;;;7.68;6.90;;;;;;;;;;5094150;27;20039;-76
2023/12/26 00:12:55;;;;;;;9.27;8.38;;;;;;;;;;5111961;27;20030;-74
2023/12/26 00:15:22;;;;;;;10.27;8.43;;;;;;;;;;5126826;27;20043;-75
2023/12/26 00:17:48;;;;;;;13.57;10.15;;;;;;;;;;5122239;27;20023;-75
2023/12/26 00:20:14;;;;;;;7.03;6.30;;;;;;;;;;5117775;27;20041;-75
2023/12/26 00:22:41;;;;;;;11.60;9.65;;;;;;;;;;5104067;27;20015;-74
2023/12/26 00:25:07;;;;;;;7.60;6.65;;;;;;;;;;5120562;27;20034;-75
2023/12/26 00:27:33;;;;;;;12.95;10.82;;;;;;;;;;5117107;28;20039;-74
2023/12/26 00:29:59;;;;;;;13.80;9.02;;;;;;;;;;5130375;27;20038;-74
2023/12/26 00:32:25;;;;;;;11.93;8.93;;;;;;;;;;5111145;27;20510;-75
2023/12/26 00:34:51;;;;;;;15.30;12.18;;;;;;;;;;5110060;28;20050;-75
2023/12/26 00:37:19;;;;;;;5.70;5.13;;;;;;;;;;5128906;27;20126;-75
2023/12/26 00:39:45;;;;;;;20.27;10.77;;;;;;;;;;5129548;27;20031;-76
2023/12/26 00:42:11;;;;;;;5.30;4.90;;;;;;;;;;5110163;27;20213;-75
2023/12/26 00:44:37;;;;;;;8.07;7.25;;;;;;;;;;5129337;27;20130;-76
2023/12/26 00:47:05;;;;;;;10.02;8.30;;;;;;;;;;5129524;27;20031;-75
2023/12/26 00:49:30;;;;;;;9.20;6.72;;;;;;;;;;5110216;27;20546;-75
2023/12/26 00:51:56;;;;;;;7.95;7.25;;;;;;;;;;5130295;27;20494;-75
2023/12/26 00:54:22;;;;;;;8.70;7.85;;;;;;;;;;5130432;27;20054;-76
2023/12/26 00:56:49;;;;;;;16.77;12.32;;;;;;;;;;5132743;27;20023;-76
2023/12/26 00:59:14;;;;;;;4.97;4.53;;;;;;;;;;5132636;27;20518;-75
2023/12/26 01:01:40;;;;;;;10.75;9.40;;;;;;;;;;5132396;27;20034;-75
2023/12/26 01:04:07;;;;;;;6.10;5.63;;;;;;;;;;5115093;27;20035;-75
2023/12/26 01:06:33;;;;;;;12.38;9.73;;;;;;;;;;5113221;27;20112;-74
2023/12/26 01:08:59;;;;;;;8.27;7.03;;;;;;;;;;5136317;27;20038;-75
2023/12/26 01:11:26;;;;;;;10.90;8.75;;;;;;;;;;5147624;27;20087;-76
2023/12/26 01:13:53;;;;;;;10.45;8.93;;;;;;;;;;5120435;27;20031;-76
2023/12/26 01:16:19;;;;;;;11.65;8.38;;;;;;;;;;5114962;27;20537;-74
2023/12/26 01:18:46;;;;;;;13.20;9.45;;;;;;;;;;5132731;27;20031;-74
2023/12/26 01:21:12;;;;;;;14.00;8.73;;;;;;;;;;5113872;27;20081;-74
2023/12/26 01:23:37;;;;;;;13.20;10.02;;;;;;;;;;5110575;27;20068;-77
2023/12/26 01:26:03;;;;;;;11.32;9.38;;;;;;;;;;5113023;27;20031;-77
2023/12/26 01:28:29;;;;;;;14.95;10.43;;;;;;;;;;5112854;27;20130;-76
2023/12/26 01:30:55;;;;;;;7.85;7.03;;;;;;;;;;5128981;27;20451;-75
2023/12/26 01:33:21;;;;;;;7.03;6.30;;;;;;;;;;5130819;27;20529;-76
2023/12/26 01:35:48;;;;;;;12.70;9.23;;;;;;;;;;5079493;27;20533;-78
2023/12/26 01:38:13;;;;;;;12.27;9.75;;;;;;;;;;5112740;27;20426;-76
2023/12/26 01:40:41;;;;;;;8.23;5.45;;;;;;;;;;5112722;27;20091;-76
2023/12/26 01:43:09;;;;;;;9.77;8.60;;;;;;;;;;5114291;27;20042;-76
2023/12/26 01:45:35;;;;;;;10.98;8.25;;;;;;;;;;5112560;27;20031;-76
2023/12/26 01:48:01;;;;;;;9.40;8.50;;;;;;;;;;5112754;27;20483;-78
2023/12/26 01:50:28;;;;;;;20.52;12.20;;;;;;;;;;5130933;27;20038;-76
2023/12/26 01:52:54;;;;;;;10.70;9.18;;;;;;;;;;5112412;27;20023;-76
2023/12/26 01:55:20;;;;;;;8.05;7.05;;;;;;;;;;5130962;27;20058;-75
2023/12/26 01:57:46;;;;;;;21.52;9.35;;;;;;;;;;5079858;27;20183;-74
2023/12/26 02:00:12;;;;;;;15.73;11.20;;;;;;;;;;5131258;27;20669;-76
2023/12/26 02:02:38;;;;;;;12.40;8.93;;;;;;;;;;5130154;27;20199;-76
2023/12/26 02:05:04;;;;;;;11.73;8.95;;;;;;;;;;5095203;27;20058;-76
2023/12/26 02:07:30;;;;;;;11.05;9.90;;;;;;;;;;5112046;27;20121;-74
2023/12/26 02:09:56;;;;;;;14.20;11.52;;;;;;;;;;5113364;27;20635;-75
2023/12/26 02:12:22;;;;;;;17.83;9.23;;;;;;;;;;5111884;27;20035;-76
2023/12/26 02:14:48;;;;;;;11.95;10.02;;;;;;;;;;5095316;27;20035;-75
2023/12/26 02:17:19;;;;;;;14.23;7.97;;;;;;;;;;5112109;27;20023;-76
2023/12/26 02:19:46;;;;;;;11.65;8.68;;;;;;;;;;5121968;27;20114;-76
2023/12/26 02:22:12;;;;;;;15.82;11.40;;;;;;;;;;5113326;27;20038;-75
2023/12/26 02:24:48;;;;;;;18.67;11.80;;;;;;;;;;5114901;27;20038;-75
2023/12/26 02:27:14;;;;;;;17.48;11.10;;;;;;;;;;5130247;27;20027;-75
2023/12/26 02:29:40;;;;;;;9.18;6.97;;;;;;;;;;5129526;27;20035;-74
2023/12/26 02:32:07;;;;;;;10.40;9.00;;;;;;;;;;5111590;27;20047;-75
2023/12/26 02:34:33;;;;;;;18.35;11.07;;;;;;;;;;5111311;27;20078;-73
2023/12/26 02:36:59;;;;;;;6.53;5.25;;;;;;;;;;5113472;27;20134;-75
2023/12/26 02:39:26;;;;;;;16.45;8.75;;;;;;;;;;5112257;27;20034;-75
2023/12/26 02:41:52;;;;;;;11.55;9.05;;;;;;;;;;5093503;28;20039;-75
2023/12/26 02:44:18;;;;;;;18.10;12.02;;;;;;;;;;5085763;27;20525;-75
2023/12/26 02:46:44;;;;;;;14.18;10.27;;;;;;;;;;5112476;27;20027;-75
2023/12/26 02:49:10;;;;;;;15.15;11.60;;;;;;;;;;5107940;27;20031;-75
2023/12/26 02:51:36;;;;;;;12.68;10.27;;;;;;;;;;5111300;27;20114;-74
2023/12/26 02:54:02;;;;;;;12.23;9.65;;;;;;;;;;5128181;27;20068;-74
2023/12/26 02:56:28;;;;;;;12.57;10.02;;;;;;;;;;5129148;27;20076;-74
2023/12/26 02:58:54;;;;;;;13.82;9.80;;;;;;;;;;5094463;27;20118;-74
2023/12/26 03:01:20;;;;;;;12.57;9.55;;;;;;;;;;5129664;27;20404;-74
2023/12/26 03:03:46;;;;;;;21.50;14.27;;;;;;;;;;5130770;27;20039;-75
2023/12/26 03:06:12;;;;;;;17.30;12.55;;;;;;;;;;5110953;27;20026;-76
2023/12/26 03:08:38;;;;;;;15.82;11.60;;;;;;;;;;5127551;27;20026;-74
2023/12/26 03:11:04;;;;;;;18.02;11.13;;;;;;;;;;5129238;27;20019;-75
2023/12/26 03:13:30;;;;;;;25.65;15.68;;;;;;;;;;5093907;27;20043;-74
2023/12/26 03:15:56;;;;;;;22.73;16.23;;;;;;;;;;5093255;27;20152;-75
2023/12/26 03:18:21;;;;;;;20.65;12.25;;;;;;;;;;5109866;27;20738;-75
2023/12/26 03:20:47;;;;;;;18.55;12.27;;;;;;;;;;5128525;27;20511;-76
2023/12/26 03:23:13;;;;;;;17.25;11.48;;;;;;;;;;5130058;27;20075;-75
2023/12/26 03:25:39;;;;;;;18.15;12.25;;;;;;;;;;5093473;28;20092;-75
2023/12/26 03:28:06;;;;;;;22.80;11.77;;;;;;;;;;5111950;27;20063;-74
2023/12/26 03:30:32;;;;;;;13.60;10.40;;;;;;;;;;5128001;27;20027;-75
2023/12/26 03:32:59;;;;;;;17.48;12.20;;;;;;;;;;5127658;27;20047;-75
2023/12/26 03:35:26;;;;;;;17.85;11.90;;;;;;;;;;5094223;28;20138;-77
2023/12/26 03:37:52;;;;;;;11.63;9.73;;;;;;;;;;5110957;27;20156;-76
2023/12/26 03:40:18;;;;;;;18.65;11.77;;;;;;;;;;5094371;27;20039;-75
2023/12/26 03:42:45;;;;;;;17.92;11.52;;;;;;;;;;5094571;27;20038;-76
2023/12/26 03:45:12;;;;;;;23.35;13.13;;;;;;;;;;5060958;27;20058;-75
2023/12/26 03:47:38;;;;;;;17.38;12.02;;;;;;;;;;5129012;27;20035;-75
2023/12/26 03:50:06;;;;;;;17.08;12.82;;;;;;;;;;5129363;27;20027;-75
2023/12/26 03:52:32;;;;;;;18.95;12.95;;;;;;;;;;5094025;27;20031;-75
2023/12/26 03:54:58;;;;;;;15.40;11.50;;;;;;;;;;5110666;27;20043;-75
2023/12/26 03:57:24;;;;;;;17.25;12.10;;;;;;;;;;5094338;27;20027;-76
2023/12/26 03:59:50;;;;;;;15.25;11.40;;;;;;;;;;5115145;27;20038;-76
2023/12/26 04:02:16;;;;;;;20.15;12.35;;;;;;;;;;5118611;27;20023;-76
2023/12/26 04:04:42;;;;;;;16.48;10.80;;;;;;;;;;5129919;27;20475;-78
2023/12/26 04:07:08;;;;;;;21.20;12.38;;;;;;;;;;5133659;27;20099;-76
2023/12/26 04:09:35;;;;;;;14.35;10.15;;;;;;;;;;5120925;27;20069;-77
2023/12/26 04:12:01;;;;;;;22.58;13.90;;;;;;;;;;5115383;27;20511;-76
2023/12/26 04:14:27;;;;;;;23.30;12.07;;;;;;;;;;5117528;27;20075;-76
2023/12/26 04:16:53;;;;;;;25.55;15.07;;;;;;;;;;5113940;27;20076;-75
2023/12/26 04:19:19;;;;;;;30.33;17.73;;;;;;;;;;5128871;27;20043;-76
2023/12/26 04:21:45;;;;;;;28.40;16.90;;;;;;;;;;5082724;28;20027;-75
2023/12/26 04:24:11;;;;;;;22.17;13.60;;;;;;;;;;5109896;28;20027;-75
2023/12/26 04:26:37;;;;;;;27.45;15.35;;;;;;;;;;5092656;27;20031;-76
2023/12/26 04:29:03;;;;;;;20.27;14.02;;;;;;;;;;5096644;27;20035;-76
2023/12/26 04:31:28;;;;;;;19.35;12.25;;;;;;;;;;5094542;27;20044;-75
2023/12/26 04:33:55;;;;;;;15.27;9.88;;;;;;;;;;5130984;27;20043;-75
2023/12/26 04:36:21;;;;;;;21.40;12.82;;;;;;;;;;5114622;27;20032;-76
2023/12/26 04:38:47;;;;;;;22.73;14.23;;;;;;;;;;5097389;27;20053;-75
2023/12/26 04:41:13;;;;;;;23.90;12.40;;;;;;;;;;5098447;27;20102;-75
2023/12/26 04:43:39;;;;;;;24.45;14.82;;;;;;;;;;5096686;27;20062;-76
2023/12/26 04:46:05;;;;;;;18.88;13.00;;;;;;;;;;5113210;27;20026;-75
2023/12/26 04:48:31;;;;;;;12.77;11.35;;;;;;;;;;5080332;27;20038;-76
2023/12/26 04:50:57;;;;;;;18.83;13.93;;;;;;;;;;5134766;27;20023;-77
2023/12/26 04:53:24;;;;;;;23.33;17.15;;;;;;;;;;5116480;27;20043;-75
2023/12/26 04:55:51;;;;;;;21.00;14.70;;;;;;;;;;5134261;27;20031;-74
2023/12/26 04:58:17;;;;;;;23.80;13.27;;;;;;;;;;5115530;27;20046;-76
2023/12/26 05:00:43;;;;;;;18.50;11.80;;;;;;;;;;5131814;27;20110;-75
2023/12/26 05:03:09;;;;;;;17.10;10.77;;;;;;;;;;5097368;27;20034;-75
2023/12/26 05:05:35;;;;;;;17.73;11.70;;;;;;;;;;5130624;27;20036;-75
2023/12/26 05:08:01;;;;;;;15.52;10.27;;;;;;;;;;5133291;27;20045;-75
2023/12/26 05:10:27;;;;;;;17.50;11.68;;;;;;;;;;5129779;27;20027;-74
2023/12/26 05:12:53;;;;;;;18.90;11.25;;;;;;;;;;5131835;27;20034;-75
2023/12/26 05:15:19;;;;;;;16.48;11.55;;;;;;;;;;5112959;27;20043;-74
2023/12/26 05:17:45;;;;;;;17.77;11.55;;;;;;;;;;5131339;27;20039;-75
2023/12/26 05:20:11;;;;;;;17.25;12.18;;;;;;;;;;5114527;27;20580;-75
2023/12/26 05:22:36;;;;;;;13.50;10.85;;;;;;;;;;5094673;27;20401;-75
2023/12/26 05:25:03;;;;;;;28.38;13.25;;;;;;;;;;5113145;27;20734;-75
2023/12/26 05:27:29;;;;;;;21.00;11.82;;;;;;;;;;5113033;27;20069;-76
2023/12/26 05:29:55;;;;;;;19.52;11.43;;;;;;;;;;5131865;27;20023;-76
2023/12/26 05:32:21;;;;;;;23.15;12.98;;;;;;;;;;5097085;28;20504;-75
2023/12/26 05:34:48;;;;;;;22.20;12.02;;;;;;;;;;5072977;28;20040;-74
2023/12/26 05:37:14;;;;;;;25.33;12.95;;;;;;;;;;5090251;28;20059;-76
2023/12/26 05:39:42;;;;;;;20.20;12.57;;;;;;;;;;5088468;28;20097;-75
2023/12/26 05:42:08;;;;;;;25.48;13.48;;;;;;;;;;5071936;28;20122;-75
2023/12/26 05:44:34;;;;;;;17.38;12.18;;;;;;;;;;5088610;28;20143;-75
2023/12/26 05:47:02;;;;;;;20.70;13.82;;;;;;;;;;5089844;28;20587;-75
2023/12/26 05:49:28;;;;;;;26.42;13.48;;;;;;;;;;5088770;28;20036;-76
2023/12/26 05:51:54;;;;;;;23.70;14.68;;;;;;;;;;5088547;28;20040;-76
2023/12/26 05:54:20;;;;;;;23.95;13.77;;;;;;;;;;5088905;28;20094;-75
2023/12/26 05:56:47;;;;;;;31.65;15.27;;;;;;;;;;5090113;28;20032;-74
2023/12/26 05:59:13;;;;;;;25.90;14.68;;;;;;;;;;5073446;28;20053;-75
2023/12/26 06:01:44;;;;;;;32.55;15.50;;;;;;;;;;5071082;28;20558;-76
2023/12/26 06:04:10;;;;;;;19.50;10.48;;;;;;;;;;5071976;28;20090;-75
2023/12/26 06:06:36;;;;;;;30.58;14.80;;;;;;;;;;5088367;28;20403;-75
2023/12/26 06:09:02;;;;;;;22.52;14.15;;;;;;;;;;5090207;28;20483;-74
2023/12/26 06:11:28;;;;;;;28.95;16.45;;;;;;;;;;5071971;28;20048;-75
2023/12/26 06:13:54;;;;;;;29.90;16.02;;;;;;;;;;5073651;28;20036;-75
2023/12/26 06:16:20;;;;;;;33.88;16.85;;;;;;;;;;5068306;28;20161;-72
2023/12/26 06:18:46;;;;;;;41.95;21.58;;;;;;;;;;5080650;28;20516;-71
2023/12/26 06:21:12;;;;;;;25.33;14.70;;;;;;;;;;5090289;28;20523;-71
2023/12/26 06:23:38;;;;;;;31.90;17.23;;;;;;;;;;5089596;28;20032;-70
2023/12/26 06:26:04;;;;;;;28.63;16.27;;;;;;;;;;5091371;28;20028;-70
2023/12/26 06:28:31;;;;;;;28.45;15.90;;;;;;;;;;5071720;28;20507;-71
2023/12/26 06:30:57;;;;;;;27.92;15.45;;;;;;;;;;5089695;27;20030;-71
2023/12/26 06:33:23;;;;;;;27.02;16.25;;;;;;;;;;5111451;27;20031;-70
2023/12/26 06:35:50;;;;;;;24.15;10.77;;;;;;;;;;5111783;27;20034;-70
2023/12/26 06:38:17;;;;;;;21.83;12.68;;;;;;;;;;5114863;27;20114;-71
2023/12/26 06:40:43;;;;;;;20.13;11.55;;;;;;;;;;5121558;27;20081;-69
2023/12/26 06:43:15;;;;;;;19.38;12.95;;;;;;;;;;5093528;27;20053;-70
2023/12/26 06:45:41;;;;;;;23.50;14.02;;;;;;;;;;5127447;27;20031;-68
2023/12/26 06:48:08;;;;;;;22.77;13.45;;;;;;;;;;5110656;27;20027;-69
2023/12/26 06:50:36;;;;;;;24.88;12.30;;;;;;;;;;5127202;27;20037;-69
2023/12/26 06:53:02;;;;;;;22.63;11.23;;;;;;;;;;5109841;27;20058;-69
2023/12/26 06:55:28;;;;;;;23.13;13.10;;;;;;;;;;5128888;27;20081;-71
2023/12/26 06:57:54;;;;;;;20.25;11.48;;;;;;;;;;5110979;27;20043;-71
2023/12/26 07:00:21;;;;;;;28.70;13.85;;;;;;;;;;5095306;27;20244;-71
2023/12/26 07:02:47;;;;;;;15.65;11.38;;;;;;;;;;5112045;27;20031;-71
2023/12/26 07:05:13;;;;;;;23.48;12.98;;;;;;;;;;5130476;27;20091;-70
2023/12/26 07:07:39;;;;;;;28.88;12.70;;;;;;;;;;5076728;27;20027;-71
2023/12/26 07:10:05;;;;;;;23.38;14.05;;;;;;;;;;5130042;27;20031;-70
2023/12/26 07:12:31;;;;;;;36.00;14.18;;;;;;;;;;5111597;27;20027;-71
2023/12/26 07:14:57;;;;;;;29.08;13.23;;;;;;;;;;5129704;27;20082;-70
2023/12/26 07:17:23;;;;;;;31.02;15.68;;;;;;;;;;5116665;27;20609;-70
2023/12/26 07:19:49;;;;;;;40.67;16.30;;;;;;;;;;5109162;28;20435;-69
2023/12/26 07:22:14;;;;;;;32.63;13.68;;;;;;;;;;5109401;28;20117;-70
2023/12/26 07:24:40;;;;;;;19.02;11.43;;;;;;;;;;5111020;27;20078;-69
2023/12/26 07:27:07;;;;;;;30.13;14.20;;;;;;;;;;5129484;27;20051;-69
2023/12/26 07:29:33;;;;;;;23.95;12.52;;;;;;;;;;5129896;27;20035;-69
2023/12/26 07:31:59;;;;;;;29.42;12.85;;;;;;;;;;5093835;27;20054;-69
2023/12/26 07:34:25;;;;;;;21.35;12.63;;;;;;;;;;5129637;27;20046;-70
2023/12/26 07:36:51;;;;;;;21.80;12.77;;;;;;;;;;5099264;28;20080;-69
2023/12/26 07:39:18;;;;;;;21.63;12.32;;;;;;;;;;5091046;28;20031;-69
2023/12/26 07:41:45;;;;;;;23.10;11.50;;;;;;;;;;5096057;27;20019;-71
2023/12/26 07:44:11;;;;;;;23.70;12.20;;;;;;;;;;5129578;27;20160;-70
2023/12/26 07:46:36;;;;;;;22.08;11.02;;;;;;;;;;5110813;28;20061;-70
2023/12/26 07:49:09;;;;;;;25.52;11.63;;;;;;;;;;5094295;27;20034;-68
2023/12/26 07:51:35;;;;;;;16.70;11.30;;;;;;;;;;5111439;27;20054;-69
2023/12/26 07:54:00;;;;;;;15.75;10.43;;;;;;;;;;5108813;27;20039;-70
2023/12/26 07:56:26;;;;;;;20.70;11.38;;;;;;;;;;5128628;27;20114;-69
2023/12/26 07:58:53;;;;;;;18.52;10.40;;;;;;;;;;5128568;27;20035;-69
2023/12/26 08:01:18;;;;;;;13.15;9.63;;;;;;;;;;5110706;28;20564;-69
2023/12/26 08:03:44;;;;;;;14.80;8.60;;;;;;;;;;5130660;27;20034;-69
2023/12/26 08:06:10;;;;;;;8.45;6.88;;;;;;;;;;5098011;27;20038;-71
2023/12/26 08:08:36;;;;;;;9.25;6.47;;;;;;;;;;5115280;27;20035;-71
2023/12/26 08:11:02;;;;;;;12.15;7.28;;;;;;;;;;5098163;27;20058;-70
2023/12/26 08:13:28;;;;;;;29.05;4.68;;;;;;;;;;5115057;27;20035;-69
2023/12/26 08:15:54;;;;;;;4.60;4.22;;;;;;;;;;5133326;27;20035;-69
2023/12/26 08:18:20;;;;;;;9.82;6.50;;;;;;;;;;5114770;27;20027;-71
2023/12/26 08:20:46;;;;;;;7.82;6.97;;;;;;;;;;5097708;27;20031;-70
2023/12/26 08:23:12;;;;;;;5.30;4.90;;;;;;;;;;5123459;27;20506;-70
2023/12/26 08:25:38;;;;;;;6.53;5.93;;;;;;;;;;5130820;27;20035;-70
2023/12/26 08:28:04;;;;;;;4.57;4.18;;;;;;;;;;5129570;27;20024;-69
2023/12/26 08:30:30;;;;;;;5.60;5.10;;;;;;;;;;5133213;27;20111;-69
2023/12/26 08:32:56;;;;;;;3.42;3.22;;;;;;;;;;5118941;27;20142;-70
2023/12/26 08:35:22;;;;;;;4.75;4.40;;;;;;;;;;5127046;27;20096;-69
2023/12/26 08:37:48;;;;;;;5.00;4.55;;;;;;;;;;5113177;27;20062;-68
2023/12/26 08:40:14;;;;;;;10.32;2.65;;;;;;;;;;5124338;27;20500;-69
2023/12/26 08:42:40;;;;;;;2.38;2.28;;;;;;;;;;5097353;27;20106;-69
2023/12/26 08:45:06;;;;;;;2.47;2.38;;;;;;;;;;5132613;27;20038;-69
2023/12/26 08:47:32;;;;;;;5.20;4.80;;;;;;;;;;5114728;27;20088;-69
2023/12/26 08:49:59;;;;;;;4.00;3.67;;;;;;;;;;5132486;27;20039;-69
2023/12/26 08:52:25;;;;;;;5.15;4.65;;;;;;;;;;5124927;27;20474;-69
2023/12/26 08:54:51;;;;;;;5.85;4.05;;;;;;;;;;5111986;28;20043;-69
2023/12/26 08:57:17;;;;;;;5.05;4.50;;;;;;;;;;5107807;28;20043;-68
2023/12/26 08:59:43;;;;;;;3.80;3.53;;;;;;;;;;5097554;27;20123;-68
2023/12/26 09:02:09;;;;;;;7.00;4.53;;;;;;;;;;5132549;27;20023;-68
2023/12/26 09:04:35;;;;;;;5.10;4.70;;;;;;;;;;5114410;27;20039;-68
2023/12/26 09:07:02;;;;;;;5.95;5.05;;;;;;;;;;5113516;27;20027;-68
2023/12/26 09:09:27;;;;;;;5.35;4.60;;;;;;;;;;5132652;27;20035;-69
2023/12/26 09:11:55;;;;;;;2.40;2.30;;;;;;;;;;5132003;27;20030;-68
2023/12/26 09:14:21;;;;;;;1.38;1.38;;;;;;;;;;5132510;27;20103;-70
2023/12/26 09:16:47;;;;;;;1.63;1.63;;;;;;;;;;5131822;27;20027;-69
2023/12/26 09:19:13;;;;;;;2.13;2.00;;;;;;;;;;5113860;27;20027;-70
2023/12/26 09:21:39;;;;;;;6.18;3.20;;;;;;;;;;5131874;27;20545;-70
2023/12/26 09:24:05;;;;;;;3.33;3.05;;;;;;;;;;5132087;27;20419;-69
2023/12/26 09:26:31;;;;;;;2.90;2.70;;;;;;;;;;5095230;27;20074;-69
2023/12/26 09:28:57;;;;;;;2.25;1.65;;;;;;;;;;5131461;27;20524;-69
2023/12/26 09:31:23;;;;;;;1.65;1.55;;;;;;;;;;5131587;27;20054;-70
2023/12/26 09:33:48;;;;;;;1.58;1.58;;;;;;;;;;5131811;27;20096;-69
2023/12/26 09:36:15;;;;;;;1.52;1.52;;;;;;;;;;5125238;27;20062;-70
2023/12/26 09:38:42;;;;;;;1.48;1.48;;;;;;;;;;5097101;28;20039;-70
2023/12/26 09:41:08;;;;;;;1.92;1.83;;;;;;;;;;5075949;28;20027;-70
2023/12/26 09:43:34;;;;;;;1.90;1.80;;;;;;;;;;5097527;28;20074;-70
2023/12/26 09:46:02;;;;;;;2.97;2.78;;;;;;;;;;5108901;27;20031;-71
2023/12/26 09:48:30;;;;;;;1.85;1.85;;;;;;;;;;5125403;27;20042;-70
2023/12/26 09:50:56;;;;;;;2.10;2.00;;;;;;;;;;5131098;27;20122;-70
2023/12/26 09:53:23;;;;;;;2.35;2.15;;;;;;;;;;5112856;27;20141;-70
2023/12/26 09:55:49;;;;;;;6.28;2.55;;;;;;;;;;5131265;27;20520;-68
2023/12/26 09:58:15;;;;;;;1.50;1.50;;;;;;;;;;5131666;27;20039;-69
2023/12/26 10:00:41;;;;;;;2.78;2.58;;;;;;;;;;5122398;27;20084;-70
2023/12/26 10:03:07;;;;;;;2.55;2.45;;;;;;;;;;5118126;27;20509;-69
2023/12/26 10:05:33;;;;;;;1.40;1.40;;;;;;;;;;5097574;28;20676;-70
2023/12/26 10:07:59;;;;;;;2.47;2.38;;;;;;;;;;5100896;27;20043;-69
2023/12/26 10:10:24;;;;;;;3.85;2.03;;;;;;;;;;5131326;27;20117;-70
2023/12/26 10:12:50;;;;;;;2.17;2.05;;;;;;;;;;5105213;28;20077;-70
2023/12/26 10:15:16;;;;;;;1.90;1.80;;;;;;;;;;5058945;28;20427;-70
2023/12/26 10:17:45;;;;;;;1.40;1.35;;;;;;;;;;5110519;27;20027;-70
2023/12/26 10:20:12;;;;;;;2.85;1.35;;;;;;;;;;5108696;27;20083;-69
2023/12/26 10:22:40;;;;;;;1.80;1.70;;;;;;;;;;5112243;27;20057;-69
2023/12/26 10:25:06;;;;;;;1.38;1.38;;;;;;;;;;5131078;27;20035;-70
2023/12/26 10:27:32;;;;;;;21.90;2.10;;;;;;;;;;5130007;27;20030;-69
2023/12/26 10:29:58;;;;;;;2.65;2.00;;;;;;;;;;5130860;27;20111;-68
2023/12/26 10:32:25;;;;;;;1.38;1.38;;;;;;;;;;5130930;27;20046;-71
2023/12/26 10:34:52;;;;;;;1.65;1.55;;;;;;;;;;5130876;27;20038;-72
2023/12/26 10:37:21;;;;;;;1.70;1.63;;;;;;;;;;5129554;27;20035;-70
2023/12/26 10:39:47;;;;;;;2.20;2.00;;;;;;;;;;5110275;28;20059;-72
2023/12/26 10:42:16;;;;;;;2.58;2.33;;;;;;;;;;5110015;28;20042;-69
2023/12/26 10:45:00;;;;;;;1.98;1.88;;;;;;;;;;5109933;28;20515;-70
2023/12/26 10:47:27;;;;;;;1.95;1.85;;;;;;;;;;5091855;27;20066;-68
2023/12/26 10:49:57;;;;;;;1.58;1.48;;;;;;;;;;5092070;28;20062;-69
2023/12/26 10:52:23;;;;;;;2.70;2.50;;;;;;;;;;5108746;27;20032;-70
2023/12/26 10:54:50;;;;;;;2.70;2.53;;;;;;;;;;5108729;28;20504;-70
2023/12/26 10:57:16;;;;;;;1.70;1.70;;;;;;;;;;5102523;27;20027;-69
2023/12/26 13:53:12;;;;;;;2.58;2.47;;;;;;;;;;5111669;28;20388;-70
2023/12/26 13:55:38;;;;;;;2.22;2.08;;;;;;;;;;5094910;28;20550;-69
2023/12/26 13:58:23;;;;;;;2.40;2.20;;;;;;;;;;5122922;27;20054;-70
2023/12/26 14:01:08;;;;;;;2.10;2.00;;;;;;;;;;5105185;28;20122;-70
2023/12/26 14:03:53;;;;;;;2.03;1.92;;;;;;;;;;5122549;27;20129;-69
2023/12/26 14:06:37;;;;;;;2.75;2.65;;;;;;;;;;5129103;27;20035;-69
2023/12/26 14:09:04;;;;;;;2.28;2.13;;;;;;;;;;5130100;27;20568;-70
2023/12/26 14:11:30;;;;;;;2.30;2.20;;;;;;;;;;5131299;27;20038;-69
2023/12/26 14:14:14;;;;;;;1.95;1.92;;;;;;;;;;5130749;27;20035;-70
2023/12/26 14:16:59;;;;;;;2.90;1.98;;;;;;;;;;5111147;27;20034;-69
2023/12/26 14:19:25;;;;;;;2.03;1.92;;;;;;;;;;5131183;27;20039;-71
2023/12/26 14:21:51;;;;;;;1.77;1.77;;;;;;;;;;5108745;27;20078;-70
2023/12/26 14:24:17;;;;;;;2.40;2.30;;;;;;;;;;5112745;27;20533;-70
2023/12/26 14:26:43;;;;;;;2.20;2.10;;;;;;;;;;5095249;27;20109;-70
2023/12/26 14:29:11;;;;;;;2.60;2.50;;;;;;;;;;5112648;27;20065;-70
2023/12/26 14:31:37;;;;;;;2.10;2.00;;;;;;;;;;5095775;27;20415;-70
2023/12/26 14:34:03;;;;;;;2.10;2.00;;;;;;;;;;5130384;27;20043;-71
2023/12/26 14:36:29;;;;;;;2.38;2.28;;;;;;;;;;5128337;27;20035;-69
2023/12/26 14:38:55;;;;;;;2.90;2.80;;;;;;;;;;5110815;27;20030;-70
2023/12/26 14:41:21;;;;;;;2.50;2.40;;;;;;;;;;5112267;27;20157;-70
2023/12/26 14:44:08;;;;;;;2.47;2.33;;;;;;;;;;5112320;27;20027;-70
2023/12/26 14:46:52;;;;;;;2.47;2.38;;;;;;;;;;5130682;27;20035;-70
2023/12/26 14:49:37;;;;;;;2.35;2.20;;;;;;;;;;5108695;28;20031;-70
2023/12/26 14:52:22;;;;;;;3.03;2.92;;;;;;;;;;5091523;28;20042;-69
2023/12/26 14:55:07;;;;;;;2.38;2.28;;;;;;;;;;5081913;27;20051;-69
2023/12/26 14:57:51;;;;;;;2.38;2.28;;;;;;;;;;5130505;27;20035;-70
2023/12/26 15:00:37;;;;;;;2.50;2.40;;;;;;;;;;5127789;27;20035;-70
2023/12/26 15:03:03;;;;;;;2.80;2.60;;;;;;;;;;5129728;27;20506;-69
2023/12/26 15:05:33;;;;;;;2.72;2.63;;;;;;;;;;5109198;27;20042;-70
2023/12/26 15:08:01;;;;;;;2.22;2.13;;;;;;;;;;5106959;28;20036;-69
2023/12/26 15:10:31;;;;;;;3.03;2.83;;;;;;;;;;5111060;27;20518;-69
2023/12/26 15:12:56;;;;;;;3.10;2.90;;;;;;;;;;5109183;28;20526;-69
2023/12/26 15:15:22;;;;;;;2.30;2.20;;;;;;;;;;5110234;27;20039;-70
2023/12/26 15:17:51;;;;;;;2.97;2.78;;;;;;;;;;5113337;27;20023;-70
2023/12/26 15:20:17;;;;;;;2.47;2.38;;;;;;;;;;5101606;27;20038;-69
2023/12/26 15:22:43;;;;;;;2.60;2.50;;;;;;;;;;5094189;27;20030;-69
2023/12/26 15:25:09;;;;;;;2.53;2.42;;;;;;;;;;5129494;27;20035;-68
2023/12/26 15:27:35;;;;;;;2.50;2.30;;;;;;;;;;5128625;27;20029;-70
2023/12/26 15:30:04;;;;;;;2.92;2.83;;;;;;;;;;5101123;27;20038;-69
2023/12/26 15:32:31;;;;;;;2.38;2.20;;;;;;;;;;5098760;27;20050;-69
2023/12/26 15:34:57;;;;;;;3.00;2.90;;;;;;;;;;5114055;27;20053;-69
2023/12/26 15:37:22;;;;;;;2.53;2.42;;;;;;;;;;5108609;27;20027;-70
2023/12/26 15:39:48;;;;;;;3.55;3.00;;;;;;;;;;5110883;27;20026;-71
2023/12/26 15:42:14;;;;;;;3.00;2.90;;;;;;;;;;5111627;27;20026;-70
2023/12/26 15:44:40;;;;;;;2.42;2.22;;;;;;;;;;5125915;27;20043;-70
2023/12/26 15:47:08;;;;;;;3.08;2.88;;;;;;;;;;5109267;28;20028;-69
2023/12/26 15:49:34;;;;;;;3.60;3.30;;;;;;;;;;5118539;27;20108;-69
2023/12/26 15:52:00;;;;;;;3.15;2.95;;;;;;;;;;5119557;27;20507;-69
2023/12/26 15:54:26;;;;;;;2.75;2.65;;;;;;;;;;5116900;27;20055;-69
2023/12/26 15:56:52;;;;;;;3.58;3.38;;;;;;;;;;5092990;28;20522;-69
2023/12/26 15:59:18;;;;;;;3.55;3.28;;;;;;;;;;5110890;27;20475;-68
2023/12/26 16:01:45;;;;;;;4.72;4.43;;;;;;;;;;5108895;28;20057;-69
2023/12/26 16:04:12;;;;;;;3.20;3.00;;;;;;;;;;5107596;28;20529;-69
2023/12/26 16:06:39;;;;;;;3.28;3.08;;;;;;;;;;5111125;28;20456;-69
2023/12/26 16:09:06;;;;;;;3.15;2.95;;;;;;;;;;5111195;27;20032;-70
2023/12/26 16:11:34;;;;;;;3.40;3.20;;;;;;;;;;5077693;28;20111;-69
2023/12/26 16:14:01;;;;;;;2.55;2.45;;;;;;;;;;5121358;27;20399;-69
2023/12/26 16:16:27;;;;;;;3.03;2.83;;;;;;;;;;5112278;27;20555;-69
2023/12/26 16:18:53;;;;;;;3.15;2.95;;;;;;;;;;5108929;27;20078;-71
2023/12/26 16:21:20;;;;;;;2.80;2.60;;;;;;;;;;5128739;27;20062;-70
2023/12/26 16:23:46;;;;;;;2.70;2.60;;;;;;;;;;5128653;27;20035;-70
2023/12/26 16:26:12;;;;;;;2.70;2.60;;;;;;;;;;5114070;27;20035;-71
2023/12/26 16:28:39;;;;;;;3.45;3.15;;;;;;;;;;5114555;27;20621;-71
2023/12/26 16:31:05;;;;;;;2.40;2.30;;;;;;;;;;5132626;27;20027;-71
2023/12/26 16:33:31;;;;;;;3.40;3.20;;;;;;;;;;5114466;27;20042;-71
2023/12/26 16:35:58;;;;;;;3.25;3.05;;;;;;;;;;5113995;27;20054;-70
2023/12/26 16:38:24;;;;;;;4.10;3.80;;;;;;;;;;5132718;27;20115;-70
2023/12/26 16:40:52;;;;;;;3.58;3.38;;;;;;;;;;5132293;27;20031;-71
2023/12/26 16:43:18;;;;;;;3.55;3.35;;;;;;;;;;5132386;27;20272;-71
2023/12/26 16:45:44;;;;;;;3.47;3.28;;;;;;;;;;5132179;27;20034;-71
2023/12/26 16:48:12;;;;;;;3.33;3.10;;;;;;;;;;5114189;27;20516;-71
2023/12/26 16:50:38;;;;;;;3.83;3.53;;;;;;;;;;5130067;27;20114;-72
2023/12/26 16:53:04;;;;;;;2.70;2.60;;;;;;;;;;5113864;27;20521;-74
2023/12/26 16:55:29;;;;;;;3.72;3.45;;;;;;;;;;5114125;27;20039;-71
2023/12/26 16:57:55;;;;;;;2.72;2.63;;;;;;;;;;5114051;27;20027;-72
2023/12/26 17:00:21;;;;;;;2.90;2.78;;;;;;;;;;5131701;27;20046;-71
2023/12/26 17:02:49;;;;;;;3.17;2.92;;;;;;;;;;5132083;27;20034;-72
2023/12/26 17:05:14;;;;;;;3.60;3.30;;;;;;;;;;5113616;27;20413;-71
2023/12/26 17:07:41;;;;;;;3.08;2.88;;;;;;;;;;5131159;27;20031;-71
2023/12/26 17:10:07;;;;;;;2.90;2.70;;;;;;;;;;5103989;27;20042;-71
2023/12/26 17:12:33;;;;;;;3.90;3.60;;;;;;;;;;5104173;27;20034;-70
2023/12/26 17:14:59;;;;;;;3.95;3.75;;;;;;;;;;5120580;27;20364;-71
2023/12/26 17:17:26;;;;;;;2.78;2.67;;;;;;;;;;5138034;27;20031;-71
2023/12/26 17:19:52;;;;;;;5.03;4.63;;;;;;;;;;5131858;27;20034;-71
2023/12/26 17:22:18;;;;;;;3.13;2.92;;;;;;;;;;5131801;27;20034;-71